Time;durP1;ratioP1;P1;durP2;ratioP2;P2;SDS_P1;SDS_P2;PMS_P1;PMS_P2;Temp;Humidity;BMP_temperature;BMP_pressure;BME280_temperature;BME280_humidity;BME280_pressure;Samples;Min_cycle;Max_cycle;Signal;HPM_P1;HPM_P2
2021/06/09 00:01:57;;;;;;;8.93;6.85;;;;;;;24.49;42.39;101901.50;5135370;27;20055;-60
2021/06/09 00:04:23;;;;;;;8.68;7.07;;;;;;;24.39;42.11;101895.47;5117674;27;20023;-60
2021/06/09 00:06:48;;;;;;;10.32;8.02;;;;;;;24.42;43.08;101908.78;5135324;27;20073;-60
2021/06/09 00:09:14;;;;;;;11.02;8.05;;;;;;;24.38;42.57;101898.41;5135259;27;20050;-61
2021/06/09 00:11:39;;;;;;;15.10;8.85;;;;;;;24.37;42.63;101908.53;5135369;27;20024;-60
2021/06/09 00:14:05;;;;;;;12.18;7.95;;;;;;;24.34;42.55;101906.19;5135160;27;20054;-61
2021/06/09 00:16:32;;;;;;;11.88;8.25;;;;;;;24.31;43.42;101912.03;5117327;27;20046;-61
2021/06/09 00:18:57;;;;;;;9.90;7.15;;;;;;;24.26;43.51;101906.28;5135032;27;20019;-61
2021/06/09 00:21:23;;;;;;;11.02;8.48;;;;;;;24.23;43.46;101906.69;5117407;27;20483;-61
2021/06/09 00:23:48;;;;;;;12.35;8.82;;;;;;;24.18;43.25;101903.63;5134785;27;20055;-61
2021/06/09 00:26:16;;;;;;;12.88;8.55;;;;;;;24.16;42.65;101909.31;5134932;27;20027;-61
2021/06/09 00:28:42;;;;;;;16.25;9.38;;;;;;;24.13;43.74;101911.59;5135457;27;20502;-61
2021/06/09 00:31:08;;;;;;;11.57;9.40;;;;;;;24.11;42.80;101914.53;5135152;27;20031;-60
2021/06/09 00:33:34;;;;;;;14.05;9.13;;;;;;;24.10;43.33;101912.81;5134872;27;20031;-61
2021/06/09 00:36:00;;;;;;;13.10;9.70;;;;;;;24.08;43.73;101908.53;5116190;27;20027;-61
2021/06/09 00:38:26;;;;;;;14.68;9.32;;;;;;;24.08;44.04;101914.03;5135226;27;20487;-61
2021/06/09 00:40:52;;;;;;;13.95;8.60;;;;;;;24.07;43.82;101913.16;5135268;27;20027;-61
2021/06/09 00:43:20;;;;;;;12.63;9.00;;;;;;;24.05;43.23;101911.66;5134915;27;20030;-61
2021/06/09 00:45:57;;;;;;;13.45;10.07;;;;;;;24.01;43.85;101907.63;5135283;27;20109;-60
2021/06/09 00:48:29;;;;;;;13.05;9.93;;;;;;;23.97;43.42;101907.16;5135026;27;20156;-60
2021/06/09 00:50:56;;;;;;;12.82;9.93;;;;;;;23.96;43.70;101910.06;5117514;28;20398;-60
2021/06/09 00:53:58;;;;;;;12.68;9.75;;;;;;;23.91;43.30;101907.06;5135143;27;20076;-61
2021/06/09 00:56:13;;;;;;;15.50;10.07;;;;;;;23.88;43.61;101913.75;5116097;28;20118;-61
2021/06/09 00:58:41;;;;;;;14.20;10.18;;;;;;;23.85;43.42;101908.66;5116953;28;20521;-60
2021/06/09 01:01:07;;;;;;;13.75;9.55;;;;;;;23.85;43.54;101907.81;5116164;28;20098;-60
2021/06/09 01:03:33;;;;;;;14.20;10.30;;;;;;;23.82;44.50;101902.69;5134784;28;20038;-61
2021/06/09 01:05:59;;;;;;;12.02;9.02;;;;;;;23.82;44.23;101899.97;5134659;28;20357;-61
2021/06/09 01:08:25;;;;;;;12.00;9.40;;;;;;;23.81;43.80;101901.03;5116495;28;20035;-61
2021/06/09 01:10:51;;;;;;;15.23;8.75;;;;;;;23.80;43.46;101893.84;5134566;28;20027;-61
2021/06/09 01:13:21;;;;;;;12.23;8.95;;;;;;;23.76;43.61;101888.75;5134401;28;20046;-61
2021/06/09 01:15:47;;;;;;;12.95;9.63;;;;;;;23.74;43.54;101896.31;5116080;28;20118;-60
2021/06/09 01:18:12;;;;;;;17.05;10.10;;;;;;;23.70;44.55;101894.16;5099252;28;20236;-61
2021/06/09 01:20:38;;;;;;;16.33;9.70;;;;;;;23.67;44.29;101889.88;5095545;28;20512;-61
2021/06/09 01:23:05;;;;;;;14.68;9.23;;;;;;;23.66;43.74;101888.19;5130402;28;20031;-60
2021/06/09 01:25:31;;;;;;;13.02;9.40;;;;;;;23.65;44.44;101891.09;5111776;28;20047;-60
2021/06/09 01:27:57;;;;;;;11.55;8.95;;;;;;;23.61;44.45;101890.66;5134206;28;20030;-60
2021/06/09 01:30:22;;;;;;;13.88;8.98;;;;;;;23.61;43.93;101889.81;5115808;28;20030;-60
2021/06/09 01:32:49;;;;;;;13.20;9.48;;;;;;;23.58;44.66;101891.03;5134165;28;20031;-61
2021/06/09 01:35:15;;;;;;;18.02;8.52;;;;;;;23.56;44.71;101887.59;5134213;28;20023;-60
2021/06/09 01:37:41;;;;;;;15.23;9.73;;;;;;;23.53;44.50;101885.28;5116385;28;20456;-61
2021/06/09 01:40:09;;;;;;;13.02;8.82;;;;;;;23.53;44.15;101890.75;5116536;28;20054;-60
2021/06/09 01:42:35;;;;;;;12.60;8.50;;;;;;;23.52;44.18;101890.91;5116356;28;20368;-60
2021/06/09 01:45:01;;;;;;;13.48;9.02;;;;;;;23.49;44.63;101891.28;5116517;27;20027;-60
2021/06/09 01:47:26;;;;;;;10.57;9.23;;;;;;;23.47;44.32;101887.91;5138104;27;20079;-61
2021/06/09 01:49:51;;;;;;;13.13;9.35;;;;;;;23.43;45.09;101892.88;5138202;27;20030;-60
2021/06/09 01:52:18;;;;;;;11.20;8.57;;;;;;;23.42;44.40;101899.38;5138239;27;20039;-61
2021/06/09 01:54:44;;;;;;;13.65;9.02;;;;;;;23.38;44.83;101895.34;5138149;27;20019;-61
2021/06/09 01:57:11;;;;;;;13.43;9.38;;;;;;;23.35;45.08;101892.94;5119506;27;20116;-60
2021/06/09 01:59:36;;;;;;;15.30;9.35;;;;;;;23.31;44.67;101886.13;5119917;27;20080;-60
2021/06/09 02:02:02;;;;;;;14.73;9.93;;;;;;;23.32;44.32;101895.19;5119298;27;20395;-61
2021/06/09 02:04:28;;;;;;;17.95;10.75;;;;;;;23.31;44.43;101890.78;5103055;27;20371;-61
2021/06/09 02:06:55;;;;;;;17.13;10.45;;;;;;;23.30;44.25;101900.88;5137965;27;20047;-60
2021/06/09 02:09:21;;;;;;;13.80;9.65;;;;;;;23.26;44.51;101891.31;5138077;27;20023;-60
2021/06/09 02:11:47;;;;;;;13.50;9.25;;;;;;;23.24;45.16;101893.41;5137623;27;20019;-61
2021/06/09 02:14:14;;;;;;;16.67;9.75;;;;;;;23.20;45.26;101890.19;5137719;27;20038;-61
2021/06/09 02:16:40;;;;;;;14.73;9.93;;;;;;;23.19;44.70;101890.38;5137757;27;20384;-62
2021/06/09 02:19:06;;;;;;;16.52;9.93;;;;;;;23.15;44.80;101889.03;5137532;27;20102;-61
2021/06/09 02:21:33;;;;;;;13.05;8.95;;;;;;;23.03;45.19;101872.22;5138098;27;20027;-60
2021/06/09 02:23:58;;;;;;;14.55;10.57;;;;;;;23.11;45.43;101887.72;5118950;27;20031;-60
2021/06/09 02:26:24;;;;;;;12.95;10.23;;;;;;;23.08;45.12;101894.41;5119233;27;20055;-60
2021/06/09 02:28:49;;;;;;;14.07;10.00;;;;;;;23.02;44.85;101888.81;5119171;27;20023;-60
2021/06/09 02:31:16;;;;;;;13.73;10.40;;;;;;;22.99;44.85;101891.94;5118875;27;20085;-61
2021/06/09 02:33:43;;;;;;;11.82;8.88;;;;;;;23.01;45.18;101898.03;5119004;27;20109;-60
2021/06/09 02:36:08;;;;;;;13.98;10.00;;;;;;;22.98;45.22;101892.94;5118670;27;20023;-61
2021/06/09 02:38:40;;;;;;;16.55;10.25;;;;;;;22.97;45.89;101902.19;5119436;27;20467;-60
2021/06/09 02:41:06;;;;;;;14.88;9.98;;;;;;;22.94;45.75;101902.56;5137306;27;20578;-59
2021/06/09 02:43:32;;;;;;;14.93;9.98;;;;;;;22.91;45.17;101902.94;5137679;27;20063;-60
2021/06/09 02:46:22;;;;;;;14.43;9.52;;;;;;;22.88;44.77;101900.56;5137129;27;20023;-60
2021/06/09 02:48:53;;;;;;;13.98;8.93;;;;;;;22.81;44.93;101897.69;5118440;27;20027;-59
2021/06/09 02:51:19;;;;;;;12.43;8.50;;;;;;;22.82;44.80;101904.03;5118620;27;20471;-61
2021/06/09 02:53:53;;;;;;;16.85;9.70;;;;;;;22.76;45.51;101904.75;5118661;27;20025;-61
2021/06/09 02:56:59;;;;;;;14.85;10.88;;;;;;;22.75;46.03;101911.25;5118351;27;20463;-62
2021/06/09 02:59:28;;;;;;;14.35;10.30;;;;;;;22.73;45.08;101900.50;5089779;27;20083;-61
2021/06/09 03:02:08;;;;;;;15.93;9.88;;;;;;;22.71;45.99;101908.03;5118618;27;20015;-62
2021/06/09 03:04:46;;;;;;;17.48;10.48;;;;;;;22.66;46.02;101898.69;5118437;27;20019;-62
2021/06/09 03:07:31;;;;;;;14.18;10.48;;;;;;;22.66;46.13;101905.00;5118341;27;20023;-61
2021/06/09 03:10:10;;;;;;;12.93;9.05;;;;;;;22.64;46.17;101895.28;5118157;27;20071;-60
2021/06/09 03:12:43;;;;;;;15.90;9.43;;;;;;;22.64;46.06;101898.03;5118145;27;20027;-61
2021/06/09 03:15:15;;;;;;;12.65;8.30;;;;;;;22.58;45.47;101886.72;5118373;27;20023;-61
2021/06/09 03:17:50;;;;;;;14.73;10.05;;;;;;;22.59;45.76;101893.06;5118246;27;20460;-60
2021/06/09 03:20:22;;;;;;;13.90;10.05;;;;;;;22.52;45.58;101886.63;5136425;27;20047;-61
2021/06/09 03:22:57;;;;;;;;;;;;;;;22.51;45.88;101891.25;5136948;27;20030;-60
2021/06/09 03:25:29;;;;;;;13.55;8.88;;;;;;;22.47;46.00;101898.06;5136350;27;20015;-60
2021/06/09 03:28:11;;;;;;;14.90;9.98;;;;;;;22.43;45.04;101893.16;5117978;27;20034;-61
2021/06/09 03:30:38;;;;;;;12.18;8.07;;;;;;;22.41;45.60;101890.63;5117920;27;20028;-59
2021/06/09 03:33:06;;;;;;;14.32;7.47;;;;;;;22.39;45.41;101894.56;5136303;27;20490;-60
2021/06/09 03:35:53;;;;;;;12.98;7.65;;;;;;;22.36;46.13;101901.22;5117999;27;20513;-60
2021/06/09 03:38:31;;;;;;;5.10;2.42;;;;;;;22.33;45.09;101901.59;5117612;27;20027;-59
2021/06/09 03:41:00;;;;;;;224.60;99.90;;;;;;;22.33;45.58;101903.47;5136130;27;20031;-59
2021/06/09 03:43:27;;;;;;;1999.90;999.90;;;;;;;22.31;45.93;101894.59;5136055;27;20053;-59
2021/06/09 03:45:53;;;;;;;6.88;6.30;;;;;;;22.29;46.26;101897.53;5118252;27;20031;-59
2021/06/09 03:48:19;;;;;;;5.50;3.85;;;;;;;22.24;45.69;101889.03;5117570;27;20023;-59
2021/06/09 03:50:46;;;;;;;4.20;3.33;;;;;;;22.28;45.48;101895.00;5117413;27;20031;-59
2021/06/09 03:53:12;;;;;;;6.35;4.03;;;;;;;22.29;46.20;101902.13;5117500;27;20050;-59
2021/06/09 03:55:38;;;;;;;2.75;2.58;;;;;;;22.29;45.44;101896.66;5117607;27;20475;-59
2021/06/09 03:58:10;;;;;;;5.45;4.00;;;;;;;22.30;46.68;101891.03;5100543;27;20080;-59
2021/06/09 04:00:36;;;;;;;2.78;2.58;;;;;;;22.33;46.27;101898.88;5117387;27;20027;-60
2021/06/09 04:03:03;;;;;;;9.07;4.25;;;;;;;22.32;46.01;101891.72;5135756;27;20352;-59
2021/06/09 04:05:28;;;;;;;531.83;268.15;;;;;;;22.33;46.07;101896.16;5117579;27;20031;-60
2021/06/09 04:07:58;;;;;;;79.05;73.47;;;;;;;22.34;46.76;101897.81;5117416;27;20037;-60
2021/06/09 04:10:23;;;;;;;404.63;53.67;;;;;;;22.36;46.61;101897.66;5117357;27;20062;-59
2021/06/09 04:12:49;;;;;;;13.65;10.05;;;;;;;22.38;46.39;101901.91;5135592;27;20047;-60
2021/06/09 04:15:17;;;;;;;22.55;10.27;;;;;;;22.38;46.27;101899.19;5117052;27;20491;-59
2021/06/09 04:17:43;;;;;;;14.13;10.05;;;;;;;22.41;46.27;101896.09;5135394;27;20076;-59
2021/06/09 04:20:10;;;;;;;15.32;9.88;;;;;;;22.45;46.47;101891.09;5116832;27;20019;-60
2021/06/09 04:22:36;;;;;;;10.65;8.10;;;;;;;22.48;46.73;101894.31;5116811;27;20110;-60
2021/06/09 04:25:03;;;;;;;8.98;6.07;;;;;;;22.54;46.48;101890.88;5116779;27;20185;-61
2021/06/09 04:27:32;;;;;;;25.67;20.55;;;;;;;22.60;46.06;101890.16;5135666;27;20035;-60
2021/06/09 04:29:58;;;;;;;24.75;20.60;;;;;;;22.69;45.94;101899.19;5099772;27;20360;-61
2021/06/09 04:32:25;;;;;;;27.77;21.50;;;;;;;22.77;46.92;101895.53;5134915;27;20035;-61
2021/06/09 04:35:00;;;;;;;28.55;22.40;;;;;;;22.89;46.96;101888.59;5134996;27;20106;-61
2021/06/09 04:37:26;;;;;;;33.42;25.65;;;;;;;23.01;46.08;101898.03;5116959;28;20053;-61
2021/06/09 04:39:52;;;;;;;31.75;25.17;;;;;;;23.12;46.58;101890.25;5135174;27;20023;-61
2021/06/09 04:42:19;;;;;;;28.02;23.85;;;;;;;23.26;47.30;101891.31;5135432;27;20033;-61
2021/06/09 04:44:45;;;;;;;35.58;26.83;;;;;;;23.36;46.95;101886.44;5116807;27;20046;-61
2021/06/09 04:47:13;;;;;;;32.78;26.35;;;;;;;23.45;46.47;101885.34;5116460;27;20502;-61
2021/06/09 04:49:41;;;;;;;36.05;28.08;;;;;;;23.63;46.94;101885.84;5117364;28;20043;-61
2021/06/09 04:52:08;;;;;;;39.80;28.58;;;;;;;23.72;46.15;101884.72;5136673;27;20030;-61
2021/06/09 04:54:34;;;;;;;36.42;28.33;;;;;;;23.88;46.20;101885.53;5134825;27;20027;-61
2021/06/09 04:56:59;;;;;;;37.10;27.77;;;;;;;24.01;47.03;101891.19;5135158;28;20072;-62
2021/06/09 04:59:25;;;;;;;43.58;28.35;;;;;;;24.12;46.13;101888.00;5116844;28;20384;-61
2021/06/09 05:01:51;;;;;;;34.50;27.45;;;;;;;24.25;46.88;101890.88;5116614;28;20026;-62
2021/06/09 05:04:16;;;;;;;40.22;23.63;;;;;;;24.34;46.21;101881.53;5116965;28;20027;-61
2021/06/09 05:06:42;;;;;;;40.78;23.77;;;;;;;24.50;45.94;101894.13;5116882;28;20027;-61
2021/06/09 05:09:08;;;;;;;188.27;146.77;;;;;;;24.62;46.51;101896.13;5134716;28;20023;-61
2021/06/09 05:11:50;;;;;;;1999.90;999.90;;;;;;;24.74;46.33;101893.72;5134861;28;20028;-60
2021/06/09 05:14:20;;;;;;;76.50;71.10;;;;;;;24.87;46.05;101892.00;5116332;28;20019;-62
2021/06/09 05:16:48;;;;;;;31.38;17.63;;;;;;;25.02;45.96;101891.06;5134879;28;20039;-61
2021/06/09 05:19:17;;;;;;;26.42;14.63;;;;;;;25.16;45.57;101892.88;5116479;28;20027;-60
2021/06/09 05:21:43;;;;;;;32.97;18.15;;;;;;;25.28;45.93;101891.28;5118801;27;20084;-60
2021/06/09 05:24:09;;;;;;;33.47;17.02;;;;;;;25.46;45.69;101897.16;5120228;27;20360;-60
2021/06/09 05:26:35;;;;;;;35.22;16.40;;;;;;;25.62;45.64;101894.09;5115645;27;20047;-61
2021/06/09 05:29:07;;;;;;;24.55;15.35;;;;;;;25.76;45.22;101895.88;5138791;27;20493;-61
2021/06/09 05:31:36;;;;;;;27.27;16.50;;;;;;;25.90;45.15;101889.41;5121001;27;20410;-61
2021/06/09 05:34:02;;;;;;;32.22;16.90;;;;;;;26.03;44.64;101883.97;5138467;27;20055;-60
2021/06/09 05:36:29;;;;;;;33.53;15.77;;;;;;;26.17;44.43;101890.41;5138542;27;20023;-60
2021/06/09 05:38:54;;;;;;;28.13;17.52;;;;;;;26.30;44.78;101881.38;5120438;27;20113;-61
2021/06/09 05:41:23;;;;;;;28.85;16.33;;;;;;;26.42;44.19;101888.78;5120364;27;20118;-61
2021/06/09 05:43:48;;;;;;;27.77;18.23;;;;;;;26.58;44.26;101884.81;5156724;27;20023;-60
2021/06/09 05:46:14;;;;;;;33.40;17.88;;;;;;;26.74;44.47;101887.19;5159066;27;20056;-60
2021/06/09 05:48:40;;;;;;;32.05;18.20;;;;;;;26.92;44.44;101887.44;5141795;27;20360;-60
2021/06/09 05:51:08;;;;;;;27.23;16.08;;;;;;;27.09;43.86;101883.19;5119304;27;20399;-61
2021/06/09 05:53:33;;;;;;;29.08;16.25;;;;;;;27.26;44.38;101882.75;5138281;27;20019;-61
2021/06/09 05:55:59;;;;;;;26.48;16.83;;;;;;;27.48;43.28;101884.25;5119900;27;20023;-62
2021/06/09 05:58:25;;;;;;;25.48;16.85;;;;;;;27.68;43.76;101885.06;5138572;27;20114;-60
2021/06/09 06:00:56;;;;;;;28.88;17.05;;;;;;;27.87;43.28;101884.16;5120487;27;20030;-60
2021/06/09 06:03:22;;;;;;;33.35;16.40;;;;;;;28.06;42.26;101888.78;5138051;27;20023;-62
2021/06/09 06:05:50;;;;;;;24.10;15.75;;;;;;;28.18;42.75;101884.28;5138393;27;20088;-61
2021/06/09 06:08:15;;;;;;;26.73;17.38;;;;;;;28.38;42.24;101897.09;5137617;27;20027;-61
2021/06/09 06:10:41;;;;;;;23.27;15.35;;;;;;;28.56;42.41;101891.72;5137577;27;20026;-60
2021/06/09 06:13:07;;;;;;;29.50;16.13;;;;;;;28.70;41.63;101893.34;5119041;27;20027;-60
2021/06/09 06:15:32;;;;;;;28.65;16.67;;;;;;;28.85;41.42;101891.09;5119559;27;20095;-61
2021/06/09 06:17:58;;;;;;;26.05;15.98;;;;;;;29.04;42.14;101895.63;5119320;27;20023;-61
2021/06/09 06:20:24;;;;;;;23.58;16.23;;;;;;;29.20;41.04;101895.06;5137446;27;20114;-62
2021/06/09 06:22:51;;;;;;;28.83;17.17;;;;;;;29.35;41.78;101887.31;5101921;27;20476;-61
2021/06/09 06:25:21;;;;;;;26.20;16.20;;;;;;;29.52;41.74;101887.56;5137179;27;20030;-59
2021/06/09 06:27:48;;;;;;;23.33;15.55;;;;;;;29.68;41.05;101886.97;5137260;27;20027;-59
2021/06/09 06:30:14;;;;;;;28.23;16.17;;;;;;;29.86;40.92;101889.78;5137048;27;20058;-59
2021/06/09 06:32:40;;;;;;;27.80;15.60;;;;;;;30.02;40.48;101885.53;5135746;27;20055;-58
2021/06/09 06:35:06;;;;;;;28.15;15.13;;;;;;;30.19;40.34;101888.50;5138086;27;20408;-61
2021/06/09 06:37:31;;;;;;;25.30;16.10;;;;;;;30.32;40.01;101889.16;5139271;27;20019;-62
2021/06/09 06:39:57;;;;;;;27.08;15.48;;;;;;;30.46;39.53;101887.94;5137628;27;20026;-61
2021/06/09 06:42:22;;;;;;;25.35;15.55;;;;;;;30.54;39.98;101890.38;5118750;27;20019;-62
2021/06/09 06:44:48;;;;;;;21.42;15.18;;;;;;;30.59;39.32;101889.69;5118733;27;20524;-61
2021/06/09 06:49:59;;;;;;;22.55;14.57;;;;;;;30.83;39.17;101891.44;5053107;28;20048;-61
2021/06/09 06:52:29;;;;;;;26.00;15.38;;;;;;;31.01;39.13;101898.84;5056104;28;20041;-61
2021/06/09 06:54:58;;;;;;;23.63;15.25;;;;;;;31.18;39.05;101902.63;5055641;28;20052;-61
2021/06/09 06:57:23;;;;;;;21.17;14.73;;;;;;;31.33;38.61;101891.03;5055776;28;20055;-62
2021/06/09 06:59:49;;;;;;;23.80;15.43;;;;;;;31.51;38.67;101889.06;5054223;28;20037;-61
2021/06/09 07:02:14;;;;;;;24.55;14.63;;;;;;;31.63;38.32;101892.63;5037419;28;20029;-59
2021/06/09 07:04:40;;;;;;;25.10;14.80;;;;;;;31.73;38.22;101893.97;5042750;28;20024;-58
2021/06/09 07:07:05;;;;;;;21.63;15.50;;;;;;;31.83;38.22;101902.50;5055785;28;20052;-59
2021/06/09 07:09:31;;;;;;;23.05;15.48;;;;;;;31.96;38.01;101896.69;5055242;28;20036;-59
2021/06/09 07:11:57;;;;;;;22.92;15.30;;;;;;;32.15;37.59;101901.88;5054992;28;20029;-59
2021/06/09 07:14:24;;;;;;;22.17;14.63;;;;;;;32.26;37.78;101891.81;5055864;28;20491;-59
2021/06/09 07:16:50;;;;;;;23.35;15.93;;;;;;;32.44;37.83;101905.47;5053945;28;20032;-60
2021/06/09 07:19:16;;;;;;;376.55;84.10;;;;;;;32.59;37.16;101903.03;5054248;28;20055;-59
2021/06/09 07:21:42;;;;;;;20.20;15.18;;;;;;;32.75;36.91;101901.38;5054269;28;20021;-59
2021/06/09 07:24:08;;;;;;;25.08;14.95;;;;;;;32.91;37.09;101902.50;5054175;28;20031;-59
2021/06/09 07:26:37;;;;;;;29.77;15.93;;;;;;;33.12;36.34;101910.13;5055054;28;20039;-60
2021/06/09 07:29:03;;;;;;;28.38;17.60;;;;;;;33.29;35.77;101899.84;5051128;28;20029;-58
2021/06/09 07:31:34;;;;;;;26.00;16.35;;;;;;;33.47;36.38;101905.16;5053735;28;20091;-59
2021/06/09 07:33:59;;;;;;;25.73;17.80;;;;;;;33.64;35.45;101900.41;5037610;28;20029;-59
2021/06/09 07:36:32;;;;;;;26.85;17.60;;;;;;;33.76;35.48;101903.91;5055372;28;20029;-59
2021/06/09 07:39:10;;;;;;;34.70;19.48;;;;;;;33.89;35.79;101892.41;5055551;28;20028;-59
2021/06/09 07:41:39;;;;;;;30.85;18.55;;;;;;;34.01;34.83;101889.50;5054001;28;20465;-59
2021/06/09 07:44:06;;;;;;;27.83;17.83;;;;;;;34.15;35.59;101898.34;5052554;28;20021;-59
2021/06/09 07:46:32;;;;;;;24.98;17.50;;;;;;;34.28;34.86;101893.25;5053494;28;20036;-59
2021/06/09 07:48:59;;;;;;;28.02;19.08;;;;;;;34.44;35.22;101899.81;5049793;28;20413;-59
2021/06/09 07:51:25;;;;;;;28.90;18.77;;;;;;;34.59;34.93;101894.44;5052395;28;20027;-59
2021/06/09 07:53:57;;;;;;;29.15;19.05;;;;;;;34.75;34.30;101901.84;5054759;28;20056;-59
2021/06/09 07:56:29;;;;;;;22.42;17.30;;;;;;;34.88;33.46;101890.25;5053558;28;20438;-60
2021/06/09 07:58:55;;;;;;;28.17;19.45;;;;;;;35.02;33.69;101897.06;5053868;28;20029;-59
2021/06/09 08:01:20;;;;;;;26.67;17.92;;;;;;;35.15;32.88;101900.56;5054359;28;20485;-59
2021/06/09 08:03:46;;;;;;;27.30;18.92;;;;;;;35.28;32.71;101902.88;5036412;28;20061;-60
2021/06/09 08:06:15;;;;;;;25.98;18.40;;;;;;;35.39;32.88;101904.63;5036989;28;20025;-59
2021/06/09 08:08:40;;;;;;;23.52;17.65;;;;;;;35.44;33.33;101905.50;5053820;28;20505;-59
2021/06/09 08:11:07;;;;;;;28.98;18.88;;;;;;;35.60;33.08;101910.09;5054259;28;20064;-59
2021/06/09 08:13:32;;;;;;;25.90;16.10;;;;;;;35.76;32.38;101907.41;5053234;28;20384;-60
2021/06/09 08:15:58;;;;;;;26.15;18.98;;;;;;;35.89;32.58;101909.72;5053381;28;20029;-59
2021/06/09 08:18:23;;;;;;;32.55;19.70;;;;;;;36.00;31.75;101908.66;5036528;28;20033;-60
2021/06/09 08:21:10;;;;;;;23.83;19.38;;;;;;;36.20;31.81;101908.78;5054170;28;20039;-60
2021/06/09 08:23:36;;;;;;;26.70;18.50;;;;;;;36.25;31.96;101893.97;5054412;28;20025;-60
2021/06/09 08:26:03;;;;;;;33.53;22.00;;;;;;;36.15;31.97;101901.22;5054855;28;20075;-59
2021/06/09 08:28:29;;;;;;;27.30;19.88;;;;;;;36.17;32.00;101904.56;5054096;28;20029;-60
2021/06/09 08:30:55;;;;;;;27.77;20.17;;;;;;;36.29;31.77;101900.69;5053986;28;20418;-59
2021/06/09 08:33:21;;;;;;;30.17;18.60;;;;;;;36.40;31.58;101896.81;5054104;28;20052;-59
2021/06/09 08:35:46;;;;;;;28.30;18.40;;;;;;;36.51;31.22;101901.34;5053663;28;20940;-60
2021/06/09 08:38:11;;;;;;;29.08;19.77;;;;;;;36.63;31.66;101896.34;5053988;28;20064;-59
2021/06/09 08:40:37;;;;;;;29.38;18.08;;;;;;;36.75;31.24;101902.50;5053533;28;20060;-59
2021/06/09 08:43:03;;;;;;;28.92;21.08;;;;;;;36.91;30.98;101909.78;5054501;28;20021;-59
2021/06/09 08:45:29;;;;;;;24.17;18.88;;;;;;;37.02;30.85;101903.09;5053681;28;20079;-59
2021/06/09 08:47:55;;;;;;;27.40;20.38;;;;;;;37.26;30.62;101900.59;5053057;28;20067;-60
2021/06/09 08:50:24;;;;;;;25.55;17.77;;;;;;;37.50;29.94;101895.25;5035095;28;20111;-59
2021/06/09 08:52:51;;;;;;;27.85;20.00;;;;;;;37.63;29.75;101894.69;5053266;28;20039;-59
2021/06/09 08:55:18;;;;;;;25.60;18.42;;;;;;;37.76;29.71;101894.09;5018782;28;20031;-60
2021/06/09 08:57:44;;;;;;;27.77;18.95;;;;;;;37.85;29.44;101892.38;5053662;28;20053;-59
2021/06/09 09:00:11;;;;;;;24.60;17.20;;;;;;;37.97;30.26;101894.91;5053401;28;20362;-60
2021/06/09 09:02:39;;;;;;;28.98;16.88;;;;;;;38.11;29.85;101896.75;5053646;28;20041;-59
2021/06/09 09:05:06;;;;;;;19.40;14.65;;;;;;;38.15;29.78;101891.44;5053677;28;20408;-59
2021/06/09 09:07:31;;;;;;;16.20;13.02;;;;;;;38.32;29.56;101889.09;5053493;28;20058;-60
2021/06/09 09:09:58;;;;;;;25.15;16.30;;;;;;;38.43;29.31;101894.41;5053893;28;20032;-60
2021/06/09 09:12:24;;;;;;;22.80;14.90;;;;;;;38.51;29.19;101895.75;5053582;28;20127;-59
2021/06/09 09:14:49;;;;;;;17.20;11.50;;;;;;;38.67;28.28;101896.50;5053242;28;20506;-60
2021/06/09 09:17:15;;;;;;;13.95;9.55;;;;;;;38.59;28.66;101894.28;5053235;28;20055;-59
2021/06/09 09:19:43;;;;;;;13.20;9.07;;;;;;;38.69;28.49;101897.88;5053280;28;20032;-59
2021/06/09 09:22:29;;;;;;;27.38;10.35;;;;;;;38.91;28.72;101900.25;5053665;28;20024;-59
2021/06/09 09:24:55;;;;;;;13.80;10.15;;;;;;;39.15;27.62;101900.31;5025972;28;20398;-60
2021/06/09 09:27:31;;;;;;;16.73;10.82;;;;;;;39.23;27.65;101894.09;5033476;28;20083;-60
2021/06/09 09:30:02;;;;;;;20.48;13.40;;;;;;;39.39;27.74;101898.47;5033458;28;20496;-59
2021/06/09 09:32:27;;;;;;;16.65;11.73;;;;;;;39.54;27.55;101904.72;5033941;28;20426;-59
2021/06/09 09:35:03;;;;;;;13.32;11.30;;;;;;;39.65;26.78;101899.88;5052921;28;20063;-59
2021/06/09 09:37:30;;;;;;;13.32;10.93;;;;;;;39.79;27.88;101908.41;5053611;28;20384;-60
2021/06/09 09:40:15;;;;;;;16.88;12.82;;;;;;;39.97;26.73;101902.88;5053483;28;20025;-59
2021/06/09 09:42:48;;;;;;;12.43;10.38;;;;;;;40.06;27.27;101897.44;5053378;28;20069;-59
2021/06/09 09:45:27;;;;;;;13.73;10.30;;;;;;;39.84;27.69;101900.75;5035777;28;20067;-60
2021/06/09 09:48:17;;;;;;;16.40;10.50;;;;;;;39.27;27.40;101898.84;5052955;28;20468;-59
2021/06/09 09:50:50;;;;;;;17.95;11.82;;;;;;;39.21;27.41;101894.41;5053126;28;20457;-59
2021/06/09 09:53:30;;;;;;;14.95;11.95;;;;;;;39.36;26.53;101902.69;5053103;28;20021;-59
2021/06/09 09:56:04;;;;;;;13.15;9.82;;;;;;;38.86;27.21;101903.09;5052864;28;20063;-60
2021/06/09 09:58:32;;;;;;;12.98;9.88;;;;;;;39.06;26.77;101902.91;5053662;28;20033;-60
2021/06/09 10:01:10;;;;;;;13.00;9.68;;;;;;;39.31;27.02;101899.09;5053074;28;20049;-60
2021/06/09 10:03:37;;;;;;;16.05;10.02;;;;;;;39.43;27.05;101905.13;5052761;28;20108;-60
2021/06/09 10:06:30;;;;;;;18.20;9.43;;;;;;;38.95;26.82;101901.34;5052290;28;20041;-59
2021/06/09 10:08:56;;;;;;;;;;;;;;;38.64;27.73;101908.28;5056907;28;20354;-60
2021/06/09 10:11:23;;;;;;;13.45;9.13;;;;;;;38.31;27.47;101913.47;5056639;28;19913;-59
2021/06/09 10:13:49;;;;;;;11.80;8.48;;;;;;;38.32;26.94;101909.59;5056479;28;20025;-59
2021/06/09 10:16:41;;;;;;;11.10;8.50;;;;;;;39.56;25.80;101908.06;5038301;28;20035;-59
2021/06/09 10:19:11;;;;;;;9.82;7.32;;;;;;;40.06;25.38;101900.22;5052397;28;20052;-59
2021/06/09 10:22:05;;;;;;;10.80;8.10;;;;;;;40.34;25.85;101904.94;5056426;28;20473;-59
2021/06/09 10:24:42;;;;;;;9.32;8.30;;;;;;;40.52;25.44;101901.31;5019281;28;20033;-59
2021/06/09 10:27:07;;;;;;;10.52;8.70;;;;;;;40.81;25.35;101901.16;5055986;28;20105;-59
2021/06/09 10:29:34;;;;;;;8.85;7.25;;;;;;;41.10;25.09;101903.78;5038252;28;20053;-60
2021/06/09 10:32:05;;;;;;;7.97;7.18;;;;;;;41.43;24.59;101896.19;5056098;28;20032;-59
2021/06/09 10:34:33;;;;;;;9.02;8.10;;;;;;;41.70;24.81;101897.06;5056276;28;20039;-59
2021/06/09 10:37:00;;;;;;;9.13;6.85;;;;;;;41.50;25.25;101900.25;5056140;28;20028;-59
2021/06/09 10:39:30;;;;;;;11.68;7.10;;;;;;;40.85;25.04;101895.72;5056381;28;20526;-59
2021/06/09 10:41:58;;;;;;;9.65;6.78;;;;;;;40.33;25.82;101906.06;5055862;28;20043;-59
2021/06/09 10:44:26;;;;;;;6.85;6.15;;;;;;;39.85;25.90;101896.84;5055846;28;20461;-60
2021/06/09 10:46:56;;;;;;;7.00;6.05;;;;;;;39.43;26.03;101902.31;5056014;28;20082;-59
2021/06/09 10:49:23;;;;;;;8.55;7.05;;;;;;;39.07;25.98;101895.34;5037534;28;20140;-59
2021/06/09 10:51:50;;;;;;;9.18;6.03;;;;;;;38.84;25.96;101894.13;5055397;28;20032;-60
2021/06/09 10:54:16;;;;;;;9.50;8.50;;;;;;;39.74;25.23;101897.25;5056092;28;20025;-59
2021/06/09 10:56:45;;;;;;;7.25;6.05;;;;;;;40.01;25.61;101897.47;5055686;28;20025;-60
2021/06/09 10:59:16;;;;;;;8.70;6.30;;;;;;;40.26;25.70;101894.34;5054658;28;20028;-60
2021/06/09 11:01:43;;;;;;;8.48;6.53;;;;;;;40.77;24.92;101890.81;5038153;28;20021;-60
2021/06/09 11:04:08;;;;;;;7.53;6.25;;;;;;;41.24;24.34;101882.97;5054419;28;20025;-60
2021/06/09 11:06:53;;;;;;;11.50;6.78;;;;;;;41.70;23.86;101894.25;5054188;28;20048;-60
2021/06/09 11:09:18;;;;;;;6.40;5.10;;;;;;;42.16;24.05;101896.16;5054435;28;20357;-60
2021/06/09 11:11:46;;;;;;;5.70;4.82;;;;;;;42.27;24.02;101895.59;5055422;28;20036;-60
2021/06/09 11:14:24;;;;;;;6.95;5.65;;;;;;;42.47;23.17;101883.00;5055188;28;20025;-60
2021/06/09 11:16:52;;;;;;;10.13;5.30;;;;;;;42.55;23.12;101890.75;5055515;28;20025;-60
2021/06/09 11:19:34;;;;;;;5.47;4.97;;;;;;;42.68;23.51;101878.59;5054607;28;20044;-60
2021/06/09 11:22:16;;;;;;;6.32;5.43;;;;;;;43.10;22.95;101882.06;5055527;28;20029;-59
2021/06/09 11:25:13;;;;;;;7.93;5.55;;;;;;;43.32;22.87;101884.88;5053167;28;20055;-61